Time;durP1;ratioP1;P1;durP2;ratioP2;P2;SDS_P1;SDS_P2;PMS_P1;PMS_P2;Temp;Humidity;BMP_temperature;BMP_pressure;BME280_temperature;BME280_humidity;BME280_pressure;Samples;Min_cycle;Max_cycle;Signal;HPM_P1;HPM_P2
2022/08/08 04:02:15;;;;;;;2.67;2.30;;;16.30;91.00;;;;;;5212077;23;21012;-61
2022/08/08 04:04:42;;;;;;;2.10;2.00;;;16.30;91.30;;;;;;4977997;28;20438;-61
2022/08/08 04:07:09;;;;;;;2.00;1.90;;;16.30;91.60;;;;;;4977727;28;20486;-61
2022/08/08 04:09:36;;;;;;;2.10;2.00;;;16.20;91.90;;;;;;4978126;28;20473;-60
2022/08/08 04:12:03;;;;;;;2.17;1.90;;;16.20;92.60;;;;;;4977573;28;20865;-60
2022/08/08 04:14:31;;;;;;;2.23;2.13;;;16.20;92.70;;;;;;4978064;28;20454;-60
2022/08/08 04:16:57;;;;;;;2.13;2.03;;;16.20;92.80;;;;;;4977634;28;20451;-60
2022/08/08 04:19:25;;;;;;;2.13;2.03;;;16.20;93.30;;;;;;4977590;28;20457;-60
2022/08/08 04:21:52;;;;;;;2.00;1.90;;;16.20;93.80;;;;;;4977023;28;20981;-60
2022/08/08 04:24:19;;;;;;;2.03;1.93;;;16.20;93.80;;;;;;4977557;28;20459;-61
2022/08/08 04:26:45;;;;;;;2.53;2.40;;;16.20;94.10;;;;;;4977686;28;20455;-60
2022/08/08 04:29:12;;;;;;;2.40;2.30;;;16.20;94.60;;;;;;4977219;28;20953;-60
2022/08/08 04:31:39;;;;;;;2.10;1.97;;;16.20;95.00;;;;;;4977219;28;20475;-60
2022/08/08 04:34:06;;;;;;;2.17;2.10;;;16.20;95.50;;;;;;4977134;28;20851;-60
2022/08/08 04:36:34;;;;;;;2.13;2.03;;;16.20;95.50;;;;;;4977130;28;20871;-61
2022/08/08 04:39:02;;;;;;;1.73;1.73;;;16.20;95.80;;;;;;4977283;28;20553;-60
2022/08/08 04:41:29;;;;;;;2.33;2.23;;;16.20;95.50;;;;;;4977009;28;20502;-60
2022/08/08 04:43:55;;;;;;;2.53;2.43;;;16.20;95.50;;;;;;4977128;28;20607;-60
2022/08/08 04:46:22;;;;;;;2.27;2.17;;;16.30;95.50;;;;;;4977500;28;20454;-60
2022/08/08 04:48:49;;;;;;;2.57;2.40;;;16.20;95.40;;;;;;4976736;28;20525;-60
2022/08/08 04:51:16;;;;;;;2.00;1.90;;;16.20;95.00;;;;;;4977222;28;20489;-60
2022/08/08 04:53:44;;;;;;;2.20;2.20;;;16.20;95.10;;;;;;4976464;28;20458;-60
2022/08/08 04:56:11;;;;;;;2.20;2.10;;;16.10;95.50;;;;;;4977360;28;20458;-60
2022/08/08 04:58:39;;;;;;;2.53;2.17;;;16.00;96.00;;;;;;4977088;28;20458;-60
2022/08/08 05:01:06;;;;;;;2.03;1.87;;;16.10;99.90;;;;;;4976361;28;20578;-59
2022/08/08 05:03:32;;;;;;;2.77;2.57;;;16.20;99.90;;;;;;4976847;28;20553;-60
2022/08/08 05:05:59;;;;;;;2.10;2.00;;;16.30;99.90;;;;;;4977014;28;20454;-60
2022/08/08 05:08:26;;;;;;;3.70;2.47;;;16.40;99.90;;;;;;4976140;28;20459;-61
2022/08/08 05:10:54;;;;;;;3.93;2.17;;;16.40;99.90;;;;;;4976437;28;20481;-61
2022/08/08 05:13:21;;;;;;;2.20;2.10;;;16.50;99.90;;;;;;4976536;28;20446;-61
2022/08/08 05:15:47;;;;;;;2.23;2.13;;;16.60;99.90;;;;;;4976437;28;20450;-60
2022/08/08 05:18:14;;;;;;;2.30;2.20;;;16.60;99.90;;;;;;4976318;28;20465;-61
2022/08/08 05:20:41;;;;;;;5.00;2.47;;;16.60;99.90;;;;;;4976473;28;20474;-60
2022/08/08 05:23:08;;;;;;;3.03;2.20;;;16.70;99.90;;;;;;4976198;28;20482;-60
2022/08/08 05:25:35;;;;;;;2.40;2.30;;;16.70;99.90;;;;;;4975588;28;20455;-60
2022/08/08 05:28:03;;;;;;;2.60;2.40;;;16.70;99.90;;;;;;4975804;28;20465;-60
2022/08/08 05:30:30;;;;;;;2.90;2.60;;;16.80;99.90;;;;;;4975370;28;21009;-60
2022/08/08 05:32:57;;;;;;;4.80;2.90;;;16.90;99.90;;;;;;4975875;28;20451;-61
2022/08/08 05:35:26;;;;;;;2.50;2.30;;;17.00;99.90;;;;;;4976434;28;20459;-61
2022/08/08 05:37:59;;;;;;;2.87;2.67;;;17.10;99.90;;;;;;4976781;28;20458;-61
2022/08/08 05:40:27;;;;;;;2.90;2.77;;;17.20;99.90;;;;;;4976473;28;20443;-62
2022/08/08 05:43:01;;;;;;;3.10;2.90;;;17.40;99.90;;;;;;4975914;28;20490;-61
2022/08/08 05:45:32;;;;;;;3.60;3.03;;;17.70;99.30;;;;;;4975417;28;20911;-61
2022/08/08 05:48:00;;;;;;;2.80;2.60;;;18.00;98.90;;;;;;4975801;28;20443;-61
2022/08/08 05:50:28;;;;;;;3.50;2.73;;;18.20;97.80;;;;;;4975527;28;20459;-62
2022/08/08 05:52:56;;;;;;;4.53;3.40;;;18.40;97.40;;;;;;4976227;28;20454;-61
2022/08/08 05:55:23;;;;;;;3.37;3.17;;;18.60;96.80;;;;;;4975366;28;20454;-61
2022/08/08 05:57:52;;;;;;;4.30;3.40;;;18.70;97.70;;;;;;4975679;28;20455;-61
2022/08/08 06:00:19;;;;;;;2.80;2.60;;;18.90;97.30;;;;;;4975499;28;20466;-62
2022/08/08 06:05:33;;;;;;;3.90;2.50;;;19.10;96.50;;;;;;4975346;28;20953;-61
2022/08/08 06:08:01;;;;;;;3.10;2.80;;;19.30;96.00;;;;;;4975586;28;20832;-61
2022/08/08 06:10:31;;;;;;;2.67;2.57;;;19.50;95.60;;;;;;4975296;28;20451;-62
2022/08/08 06:12:59;;;;;;;3.77;3.50;;;19.60;94.90;;;;;;4975301;28;20450;-61
2022/08/08 06:15:28;;;;;;;2.90;2.70;;;19.70;94.00;;;;;;4975464;28;20814;-61
2022/08/08 06:17:57;;;;;;;3.20;3.00;;;19.70;93.80;;;;;;4975408;28;20458;-61
2022/08/08 06:20:24;;;;;;;2.87;2.67;;;19.80;93.60;;;;;;4974432;28;20466;-61
2022/08/08 06:22:51;;;;;;;4.30;2.57;;;19.90;93.50;;;;;;4979282;28;20478;-60
2022/08/08 06:25:18;;;;;;;6.47;2.57;;;20.10;93.00;;;;;;4982989;28;20455;-61
2022/08/08 06:27:50;;;;;;;3.10;2.77;;;20.30;92.90;;;;;;4983009;28;20454;-61
2022/08/08 06:30:18;;;;;;;2.53;2.33;;;20.60;92.30;;;;;;4976088;28;20817;-61
2022/08/08 06:32:48;;;;;;;4.77;2.83;;;21.00;91.60;;;;;;4975242;28;20458;-62
2022/08/08 06:35:18;;;;;;;2.90;2.70;;;21.50;90.10;;;;;;4975357;28;20454;-61
2022/08/08 06:37:48;;;;;;;2.77;2.67;;;22.00;86.20;;;;;;4974749;28;20965;-61
2022/08/08 06:40:15;;;;;;;2.80;2.60;;;22.50;85.30;;;;;;4975054;28;20439;-62
2022/08/08 06:42:48;;;;;;;3.33;2.97;;;22.80;83.30;;;;;;4974708;28;20458;-60
2022/08/08 06:45:15;;;;;;;2.80;2.60;;;23.20;83.70;;;;;;4975211;28;20443;-60
2022/08/08 06:47:42;;;;;;;2.20;2.10;;;23.90;81.70;;;;;;4974712;28;20454;-60
2022/08/08 06:50:10;;;;;;;2.40;2.30;;;24.30;79.80;;;;;;4974457;28;20459;-60
2022/08/08 06:52:39;;;;;;;3.37;2.47;;;24.70;77.60;;;;;;4974427;28;20808;-61
2022/08/08 06:55:07;;;;;;;3.87;2.80;;;25.20;75.80;;;;;;4974749;28;20557;-61
2022/08/08 06:57:34;;;;;;;5.23;2.57;;;25.70;72.70;;;;;;4974871;28;20454;-61
2022/08/08 07:00:01;;;;;;;3.10;2.90;;;26.00;70.70;;;;;;4974953;28;20454;-61
2022/08/08 07:02:32;;;;;;;2.97;2.63;;;26.40;69.90;;;;;;4975403;28;20984;-61
2022/08/08 07:05:05;;;;;;;2.90;2.70;;;26.90;66.90;;;;;;4974884;28;20490;-61
2022/08/08 07:07:41;;;;;;;2.70;2.50;;;27.40;65.00;;;;;;4974921;28;20477;-61
2022/08/08 07:10:11;;;;;;;2.93;2.77;;;27.90;62.70;;;;;;4974660;28;20924;-61
2022/08/08 07:12:41;;;;;;;3.80;3.00;;;28.40;62.00;;;;;;4974446;28;20964;-61
2022/08/08 07:15:09;;;;;;;2.97;2.80;;;28.60;60.80;;;;;;4974720;28;20459;-61
2022/08/08 07:17:42;;;;;;;5.10;3.60;;;28.90;59.20;;;;;;4974758;28;20470;-61
2022/08/08 07:20:09;;;;;;;3.17;2.50;;;29.10;58.20;;;;;;4974804;28;20446;-61
2022/08/08 07:22:48;;;;;;;3.90;2.47;;;29.50;58.10;;;;;;4974755;28;20463;-61
2022/08/08 07:25:16;;;;;;;3.20;2.93;;;30.00;57.80;;;;;;4974799;28;20435;-61
2022/08/08 07:27:49;;;;;;;2.97;2.77;;;30.40;57.20;;;;;;4974603;28;20454;-61
2022/08/08 07:30:16;;;;;;;4.10;3.77;;;30.90;55.40;;;;;;4974683;28;20442;-61
2022/08/08 07:32:43;;;;;;;2.83;2.60;;;30.70;55.00;;;;;;4978379;28;20458;-61
2022/08/08 07:35:10;;;;;;;2.37;2.20;;;30.90;55.00;;;;;;4978389;28;20458;-61
2022/08/08 07:37:39;;;;;;;2.97;2.77;;;31.00;55.00;;;;;;4978226;28;20845;-61
2022/08/08 07:40:08;;;;;;;2.90;2.70;;;31.30;54.30;;;;;;4978207;28;20454;-61
2022/08/08 07:42:37;;;;;;;3.47;2.50;;;31.50;53.90;;;;;;4978126;28;20474;-61
2022/08/08 07:45:04;;;;;;;4.70;2.57;;;31.80;53.30;;;;;;4978133;28;20474;-61
2022/08/08 07:47:31;;;;;;;3.67;2.80;;;31.20;53.50;;;;;;4978063;28;20462;-60
2022/08/08 07:49:57;;;;;;;2.80;2.60;;;31.20;54.00;;;;;;4978107;28;20460;-60
2022/08/08 07:52:24;;;;;;;2.50;2.40;;;31.00;54.10;;;;;;4977545;28;20981;-60
2022/08/08 07:54:58;;;;;;;2.43;2.33;;;31.20;54.60;;;;;;4978124;28;20848;-60
2022/08/08 07:57:36;;;;;;;4.67;2.50;;;31.60;55.10;;;;;;4977617;28;20439;-60
2022/08/08 08:00:08;;;;;;;2.80;2.60;;;31.70;53.50;;;;;;4978424;28;20438;-60
2022/08/08 08:02:39;;;;;;;3.47;2.57;;;32.10;53.60;;;;;;4978112;28;20498;-60
2022/08/08 08:05:17;;;;;;;2.67;2.50;;;32.10;52.50;;;;;;4977483;28;20517;-60
2022/08/08 08:07:47;;;;;;;2.67;2.47;;;32.10;53.30;;;;;;4977859;28;20439;-60
2022/08/08 08:10:16;;;;;;;5.40;2.83;;;31.90;52.70;;;;;;4978595;28;20459;-61
2022/08/08 08:12:52;;;;;;;2.63;2.43;;;32.20;53.10;;;;;;4977511;28;20486;-60
2022/08/08 08:15:25;;;;;;;2.47;2.37;;;32.00;52.30;;;;;;4978254;28;20434;-60
2022/08/08 08:17:57;;;;;;;2.80;2.60;;;32.10;52.50;;;;;;4978347;28;20785;-61
2022/08/08 08:20:28;;;;;;;2.53;2.33;;;32.30;52.90;;;;;;4977936;28;20470;-60
2022/08/08 08:22:55;;;;;;;3.77;2.37;;;32.30;52.60;;;;;;4978444;28;20454;-60
2022/08/08 08:25:21;;;;;;;5.40;2.87;;;32.40;52.40;;;;;;4977365;28;20493;-60
2022/08/08 08:27:48;;;;;;;2.60;2.40;;;32.70;51.80;;;;;;4977564;28;20470;-61
2022/08/08 08:30:15;;;;;;;2.30;2.20;;;33.20;51.10;;;;;;4977225;28;20465;-60
2022/08/08 08:32:43;;;;;;;2.93;2.33;;;33.50;50.60;;;;;;4979427;28;20199;-60
2022/08/08 08:35:11;;;;;;;2.60;2.40;;;33.70;50.30;;;;;;4978586;28;20828;-61
2022/08/08 08:37:38;;;;;;;2.60;2.30;;;33.70;50.50;;;;;;4978327;28;20549;-62
2022/08/08 08:40:06;;;;;;;2.67;2.10;;;34.30;49.30;;;;;;4977866;28;20459;-61
2022/08/08 08:42:34;;;;;;;2.43;2.23;;;34.70;49.70;;;;;;4976821;28;20474;-61
2022/08/08 08:45:02;;;;;;;2.27;2.17;;;35.20;48.10;;;;;;4977876;28;20992;-61
2022/08/08 08:47:30;;;;;;;2.63;1.90;;;35.50;47.40;;;;;;4978252;28;20457;-61
2022/08/08 08:49:58;;;;;;;2.50;2.17;;;35.90;46.00;;;;;;4977848;28;20465;-62
2022/08/08 08:52:26;;;;;;;2.33;1.90;;;36.10;44.90;;;;;;4977243;28;20474;-61
2022/08/08 08:54:56;;;;;;;1.93;1.83;;;36.40;44.30;;;;;;4977325;28;20450;-61
2022/08/08 08:57:23;;;;;;;3.70;1.90;;;36.40;44.40;;;;;;4977505;28;20449;-61
2022/08/08 08:59:57;;;;;;;2.63;1.90;;;36.30;44.60;;;;;;4976932;28;20439;-61
2022/08/08 09:02:25;;;;;;;4.63;2.10;;;36.70;45.20;;;;;;4977390;28;20529;-61
2022/08/08 09:04:55;;;;;;;2.17;2.07;;;36.60;43.10;;;;;;4977146;28;20536;-61
2022/08/08 09:07:24;;;;;;;2.23;2.10;;;36.90;44.00;;;;;;4977471;28;20458;-61
2022/08/08 09:09:54;;;;;;;3.03;2.20;;;37.00;44.10;;;;;;4976687;28;20454;-61
2022/08/08 09:12:22;;;;;;;1.90;1.73;;;37.30;43.00;;;;;;4976641;28;20561;-61
2022/08/08 09:14:51;;;;;;;3.93;2.03;;;37.50;43.20;;;;;;4976675;28;20453;-62
2022/08/08 09:17:19;;;;;;;2.00;1.90;;;37.50;43.40;;;;;;4977087;28;20462;-61
2022/08/08 09:19:46;;;;;;;4.50;2.03;;;37.40;43.10;;;;;;4976744;28;20466;-61
2022/08/08 09:22:14;;;;;;;2.50;1.80;;;37.50;42.90;;;;;;4976357;28;20478;-61
2022/08/08 09:24:43;;;;;;;2.20;2.00;;;37.40;43.20;;;;;;4976726;28;20550;-62
2022/08/08 09:27:11;;;;;;;2.93;1.70;;;37.60;42.30;;;;;;4976682;28;20458;-61
2022/08/08 09:29:51;;;;;;;1.93;1.57;;;38.10;40.80;;;;;;4976909;28;21020;-62
2022/08/08 09:32:25;;;;;;;1.73;1.73;;;38.50;40.50;;;;;;4976927;28;20842;-61
2022/08/08 09:34:55;;;;;;;2.37;2.03;;;38.60;40.20;;;;;;4976823;28;20442;-61
2022/08/08 09:37:26;;;;;;;2.17;2.07;;;38.70;39.20;;;;;;4976617;28;20533;-62
2022/08/08 09:40:00;;;;;;;2.57;2.43;;;38.80;39.70;;;;;;4976125;28;20442;-63
2022/08/08 09:42:33;;;;;;;2.07;1.87;;;38.70;40.00;;;;;;4978091;28;20481;-62
2022/08/08 09:45:06;;;;;;;2.50;2.20;;;38.60;40.50;;;;;;4979813;28;20517;-62
2022/08/08 09:47:35;;;;;;;2.30;2.20;;;38.50;40.20;;;;;;4978288;28;20431;-63
2022/08/08 09:50:05;;;;;;;2.23;2.10;;;39.00;39.90;;;;;;4976398;28;20477;-63
2022/08/08 09:52:34;;;;;;;1.97;1.87;;;39.20;39.40;;;;;;4976139;28;20474;-62
2022/08/08 09:55:03;;;;;;;2.33;2.20;;;39.70;38.40;;;;;;4975627;28;20494;-63
2022/08/08 09:57:34;;;;;;;2.10;2.00;;;39.70;38.80;;;;;;4975774;28;20454;-62
2022/08/08 10:00:02;;;;;;;2.27;2.17;;;39.60;39.40;;;;;;4975799;28;20203;-62
2022/08/08 10:02:35;;;;;;;2.30;2.20;;;39.20;38.60;;;;;;4975362;28;21004;-62
2022/08/08 10:05:07;;;;;;;2.07;2.00;;;39.00;39.20;;;;;;4975605;28;20488;-62
2022/08/08 10:07:34;;;;;;;1.90;1.80;;;39.20;38.40;;;;;;4975787;28;20458;-62
2022/08/08 10:10:03;;;;;;;1.60;1.60;;;39.30;37.80;;;;;;4975406;28;21000;-62
2022/08/08 10:12:36;;;;;;;1.93;1.83;;;39.30;37.40;;;;;;4975157;28;20841;-62
2022/08/08 10:15:05;;;;;;;2.13;1.93;;;39.30;36.90;;;;;;4975343;28;20531;-62
2022/08/08 10:17:32;;;;;;;2.20;2.00;;;39.30;36.70;;;;;;4975448;28;20512;-61
2022/08/08 10:20:01;;;;;;;1.97;1.90;;;38.90;37.70;;;;;;4975312;28;20513;-62
2022/08/08 10:22:29;;;;;;;1.90;1.60;;;38.70;38.20;;;;;;4975234;28;20568;-62
2022/08/08 10:25:01;;;;;;;1.40;1.40;;;38.10;35.60;;;;;;4975072;28;20477;-62
2022/08/08 10:27:39;;;;;;;1.60;1.60;;;37.40;36.10;;;;;;4975291;28;20445;-61
2022/08/08 10:30:07;;;;;;;1.40;1.33;;;36.60;37.20;;;;;;4975204;28;20802;-61
2022/08/08 10:32:36;;;;;;;1.73;1.47;;;36.10;36.90;;;;;;4974901;28;20485;-60
2022/08/08 10:35:06;;;;;;;1.90;1.57;;;35.60;36.80;;;;;;4975129;28;20450;-61
2022/08/08 10:37:34;;;;;;;1.47;1.47;;;35.40;37.10;;;;;;4975064;28;20466;-61
2022/08/08 10:40:11;;;;;;;1.40;1.40;;;35.20;37.00;;;;;;4975250;28;20465;-61
2022/08/08 10:42:41;;;;;;;1.67;1.57;;;35.30;36.90;;;;;;4975114;28;20442;-60
2022/08/08 10:45:10;;;;;;;1.43;1.43;;;35.70;37.90;;;;;;4974682;28;20969;-60
2022/08/08 10:47:37;;;;;;;2.87;1.40;;;36.30;36.90;;;;;;4975106;28;20462;-60
2022/08/08 10:50:06;;;;;;;1.33;1.23;;;37.00;37.00;;;;;;4974735;28;20458;-60
2022/08/08 10:52:36;;;;;;;1.50;1.50;;;37.50;35.30;;;;;;4975118;28;20485;-60
2022/08/08 10:55:05;;;;;;;1.20;1.17;;;37.60;34.00;;;;;;4974701;28;20457;-60
2022/08/08 10:57:37;;;;;;;1.67;1.30;;;37.80;34.20;;;;;;4975230;28;20884;-60
2022/08/08 11:00:08;;;;;;;1.03;1.03;;;38.20;34.50;;;;;;4975136;28;20802;-61
2022/08/08 11:02:35;;;;;;;1.47;1.10;;;38.40;34.20;;;;;;4975161;28;20470;-60
2022/08/08 11:05:06;;;;;;;1.37;1.27;;;38.70;33.40;;;;;;4974892;28;20488;-60
2022/08/08 11:07:33;;;;;;;1.53;1.03;;;38.50;33.10;;;;;;4978842;28;20785;-60
2022/08/08 11:10:01;;;;;;;1.40;1.40;;;37.50;34.80;;;;;;4978545;28;20941;-60
2022/08/08 11:12:28;;;;;;;1.70;1.70;;;37.50;35.60;;;;;;4978676;28;20477;-60
2022/08/08 11:14:58;;;;;;;2.57;1.43;;;36.90;33.70;;;;;;4978739;28;20520;-60
2022/08/08 11:17:28;;;;;;;1.60;1.50;;;36.60;35.20;;;;;;4978627;28;20458;-60
2022/08/08 11:19:56;;;;;;;2.60;1.57;;;36.70;35.10;;;;;;4978631;28;20449;-60
2022/08/08 11:22:25;;;;;;;1.50;1.50;;;36.70;34.80;;;;;;4978487;28;20482;-60
2022/08/08 11:24:56;;;;;;;1.27;1.20;;;36.90;35.50;;;;;;4978335;28;20480;-60
2022/08/08 11:27:29;;;;;;;1.53;1.53;;;37.00;35.10;;;;;;4978540;28;20445;-60
2022/08/08 11:29:57;;;;;;;2.83;1.60;;;37.00;35.70;;;;;;4979021;28;20438;-60
2022/08/08 11:32:29;;;;;;;1.60;1.50;;;37.00;35.20;;;;;;4978842;28;20544;-60
2022/08/08 11:35:04;;;;;;;1.40;1.40;;;36.80;35.70;;;;;;4978912;28;20443;-60
2022/08/08 11:37:32;;;;;;;1.73;1.50;;;36.50;36.90;;;;;;4978387;28;20442;-60
2022/08/08 11:40:00;;;;;;;2.33;1.60;;;36.40;36.10;;;;;;4978334;28;20461;-60
2022/08/08 11:42:27;;;;;;;1.60;1.60;;;36.20;35.80;;;;;;4977876;28;20474;-61
2022/08/08 11:44:54;;;;;;;1.47;1.43;;;36.10;36.70;;;;;;4978165;28;20485;-60
2022/08/08 11:47:22;;;;;;;2.10;1.90;;;35.90;36.20;;;;;;4978335;28;20508;-60
2022/08/08 11:49:52;;;;;;;1.63;1.30;;;35.60;36.30;;;;;;4978075;28;20532;-60
2022/08/08 11:52:19;;;;;;;1.60;1.50;;;35.60;36.20;;;;;;4978042;28;20485;-60
2022/08/08 11:54:46;;;;;;;1.70;1.60;;;35.60;36.10;;;;;;4977838;28;20477;-60
2022/08/08 11:57:19;;;;;;;2.50;1.60;;;35.40;36.20;;;;;;4977889;28;20481;-61
2022/08/08 11:59:47;;;;;;;2.47;2.27;;;35.30;37.10;;;;;;4977614;28;20913;-60
2022/08/08 12:02:14;;;;;;;1.83;1.73;;;35.20;36.90;;;;;;4977271;28;20482;-60
2022/08/08 12:04:42;;;;;;;2.10;1.90;;;34.90;36.70;;;;;;4977700;28;20482;-60
2022/08/08 12:07:10;;;;;;;2.40;1.67;;;34.50;37.00;;;;;;4977724;28;20465;-60
2022/08/08 12:09:36;;;;;;;1.90;1.80;;;34.30;38.00;;;;;;4977635;28;20462;-60
2022/08/08 12:12:04;;;;;;;2.27;2.07;;;34.30;39.10;;;;;;4977732;28;20474;-60
2022/08/08 12:14:31;;;;;;;2.37;1.70;;;34.20;37.90;;;;;;4977815;28;20933;-60
2022/08/08 12:16:58;;;;;;;1.90;1.60;;;34.10;38.20;;;;;;4976478;28;20494;-61
2022/08/08 12:19:25;;;;;;;2.47;2.27;;;34.00;38.30;;;;;;4977057;28;20493;-61
2022/08/08 12:21:52;;;;;;;2.07;1.90;;;34.10;38.40;;;;;;4977544;28;20521;-60
2022/08/08 12:24:22;;;;;;;5.13;1.87;;;34.20;38.90;;;;;;4977267;28;20459;-60
2022/08/08 12:26:52;;;;;;;1.83;1.60;;;34.40;39.10;;;;;;4978472;28;20451;-61
2022/08/08 12:29:22;;;;;;;2.00;1.80;;;34.10;38.00;;;;;;4977630;28;20491;-60
2022/08/08 12:32:00;;;;;;;1.97;1.87;;;34.10;39.40;;;;;;4977174;28;20548;-61
2022/08/08 12:34:38;;;;;;;2.97;1.37;;;34.30;37.90;;;;;;4977425;28;20473;-61
2022/08/08 12:37:06;;;;;;;1.73;1.63;;;34.40;38.80;;;;;;4977523;28;20501;-60
2022/08/08 12:39:35;;;;;;;1.97;1.87;;;34.40;38.30;;;;;;4977421;28;20495;-60
2022/08/08 12:42:02;;;;;;;4.33;1.70;;;34.50;37.60;;;;;;4977368;28;20485;-61
2022/08/08 12:44:31;;;;;;;1.70;1.70;;;34.40;38.20;;;;;;4977703;28;20470;-60
2022/08/08 12:46:59;;;;;;;2.40;1.70;;;34.40;37.50;;;;;;4977896;28;20450;-60
2022/08/08 12:49:30;;;;;;;3.30;1.77;;;34.10;37.40;;;;;;4977303;28;20802;-60
2022/08/08 12:51:57;;;;;;;1.77;1.67;;;33.80;38.40;;;;;;4977822;28;20482;-60
2022/08/08 12:54:25;;;;;;;2.20;2.00;;;33.70;38.10;;;;;;4978350;28;20458;-61
2022/08/08 12:56:54;;;;;;;2.27;1.67;;;33.50;37.50;;;;;;4978291;28;20460;-61
2022/08/08 12:59:24;;;;;;;1.70;1.40;;;33.40;37.70;;;;;;4977128;28;20454;-61
2022/08/08 13:01:53;;;;;;;1.70;1.20;;;33.40;37.60;;;;;;4977870;28;20486;-61
2022/08/08 13:04:22;;;;;;;3.93;1.50;;;33.50;37.30;;;;;;4982142;28;20454;-60
2022/08/08 13:07:00;;;;;;;2.97;1.53;;;33.50;38.90;;;;;;4982007;28;20474;-61
2022/08/08 13:09:31;;;;;;;2.73;1.33;;;33.60;37.30;;;;;;4977456;28;20521;-61
2022/08/08 13:12:00;;;;;;;3.20;1.50;;;33.40;38.10;;;;;;4977148;28;20479;-61
2022/08/08 13:14:37;;;;;;;3.23;1.50;;;33.40;38.20;;;;;;4976746;28;20454;-61
2022/08/08 13:17:05;;;;;;;1.30;1.30;;;33.50;39.30;;;;;;4976640;28;20458;-61
2022/08/08 13:19:32;;;;;;;1.63;1.33;;;33.40;37.70;;;;;;4976473;28;20887;-61
2022/08/08 13:21:59;;;;;;;1.80;1.70;;;33.40;37.40;;;;;;4976380;28;20482;-61
2022/08/08 13:24:26;;;;;;;2.50;1.53;;;33.40;37.60;;;;;;4976106;28;20941;-61
2022/08/08 13:27:06;;;;;;;1.83;1.73;;;33.40;37.90;;;;;;4976200;28;20481;-61
2022/08/08 13:29:34;;;;;;;1.70;1.60;;;33.40;38.00;;;;;;4976556;28;20481;-61
2022/08/08 13:32:03;;;;;;;3.00;1.37;;;33.30;38.70;;;;;;4976282;28;20845;-61
2022/08/08 13:34:30;;;;;;;2.10;1.50;;;33.30;38.20;;;;;;4975838;28;20950;-61
2022/08/08 13:36:57;;;;;;;1.80;1.70;;;33.40;38.50;;;;;;4976242;28;20455;-61
2022/08/08 13:39:24;;;;;;;1.67;1.67;;;33.50;37.70;;;;;;4976099;28;20458;-62
2022/08/08 13:41:53;;;;;;;3.23;1.50;;;33.40;37.20;;;;;;4975920;28;20475;-61
2022/08/08 13:44:22;;;;;;;6.50;1.53;;;33.20;37.60;;;;;;4976020;28;20799;-61
2022/08/08 13:46:56;;;;;;;3.10;1.50;;;33.40;38.00;;;;;;4975842;28;20513;-61
2022/08/08 13:49:24;;;;;;;2.00;1.80;;;33.40;38.10;;;;;;4975958;28;20546;-61
2022/08/08 13:51:56;;;;;;;1.33;1.33;;;33.50;38.30;;;;;;4975703;28;20568;-61
2022/08/08 13:54:24;;;;;;;2.70;1.70;;;33.50;37.20;;;;;;4975677;28;20454;-61
2022/08/08 13:57:06;;;;;;;2.87;1.33;;;33.60;38.70;;;;;;4975509;28;20454;-61
2022/08/08 13:59:36;;;;;;;3.43;1.50;;;33.60;37.70;;;;;;4975879;28;20449;-61
2022/08/08 14:02:12;;;;;;;3.00;1.50;;;33.60;37.70;;;;;;4975408;28;20486;-61
2022/08/08 14:04:39;;;;;;;1.50;1.40;;;33.60;37.70;;;;;;4975452;28;20797;-61
2022/08/08 14:07:05;;;;;;;4.43;1.50;;;33.60;36.50;;;;;;4975357;28;20489;-61
2022/08/08 14:09:35;;;;;;;2.80;1.50;;;33.50;36.80;;;;;;4975535;28;20443;-61
2022/08/08 14:12:05;;;;;;;1.33;1.33;;;33.30;36.90;;;;;;4975046;28;20533;-61
2022/08/08 14:14:40;;;;;;;1.43;1.40;;;33.00;37.40;;;;;;4974943;28;20929;-61
2022/08/08 14:17:09;;;;;;;3.77;1.83;;;33.00;37.30;;;;;;4975557;28;20439;-61
2022/08/08 14:19:38;;;;;;;3.80;1.60;;;32.90;38.10;;;;;;4975679;28;20462;-61
2022/08/08 14:22:20;;;;;;;1.70;1.50;;;32.90;38.40;;;;;;4975375;28;20478;-61
2022/08/08 14:24:53;;;;;;;1.40;1.33;;;33.00;38.30;;;;;;4975079;28;20941;-61
2022/08/08 14:27:24;;;;;;;3.90;1.57;;;33.10;38.00;;;;;;4974861;28;20836;-61
2022/08/08 14:30:01;;;;;;;1.80;1.53;;;33.30;37.40;;;;;;4975291;28;20470;-61
2022/08/08 14:32:30;;;;;;;1.30;1.30;;;33.30;37.10;;;;;;4975153;28;20482;-61
2022/08/08 14:35:01;;;;;;;2.00;1.40;;;33.40;37.40;;;;;;4975311;28;20454;-61
2022/08/08 14:37:28;;;;;;;2.33;1.50;;;33.20;37.00;;;;;;4975842;28;20438;-61
2022/08/08 14:39:56;;;;;;;1.70;1.40;;;33.00;36.60;;;;;;4974744;28;20481;-61
2022/08/08 14:42:33;;;;;;;1.60;1.50;;;33.00;36.60;;;;;;4974800;28;20490;-61
2022/08/08 14:45:04;;;;;;;1.73;1.40;;;32.90;36.90;;;;;;4975154;28;20795;-61
2022/08/08 14:47:32;;;;;;;1.30;1.30;;;32.90;37.70;;;;;;4975030;28;20431;-61
2022/08/08 14:50:09;;;;;;;2.93;2.77;;;32.90;37.30;;;;;;4974925;28;20454;-61
2022/08/08 14:52:48;;;;;;;2.00;1.70;;;33.00;37.50;;;;;;4975091;28;20513;-60
2022/08/08 14:55:16;;;;;;;1.77;1.67;;;32.90;37.10;;;;;;4974975;28;20462;-61
2022/08/08 14:57:43;;;;;;;1.40;1.30;;;32.90;37.50;;;;;;4974749;28;20942;-61
2022/08/08 15:00:13;;;;;;;1.97;1.37;;;32.80;37.00;;;;;;4974512;28;20462;-61
2022/08/08 15:02:42;;;;;;;5.30;2.93;;;32.70;37.00;;;;;;4974930;28;20462;-61
2022/08/08 15:05:09;;;;;;;2.57;1.63;;;32.70;37.40;;;;;;4974930;28;20817;-61
2022/08/08 15:07:36;;;;;;;1.83;1.57;;;32.80;38.50;;;;;;4974933;28;20477;-61
2022/08/08 15:10:03;;;;;;;2.60;1.40;;;32.70;37.70;;;;;;4974856;28;20462;-61
2022/08/08 15:12:30;;;;;;;3.53;1.50;;;32.70;36.70;;;;;;4974588;28;20989;-61
2022/08/08 15:14:57;;;;;;;1.30;1.30;;;32.60;36.40;;;;;;4975044;28;20461;-61
2022/08/08 15:17:25;;;;;;;1.50;1.40;;;32.60;37.60;;;;;;4974668;28;20450;-61
2022/08/08 15:19:52;;;;;;;1.70;1.30;;;32.60;36.90;;;;;;4974554;28;20942;-61
2022/08/08 15:22:19;;;;;;;1.40;1.30;;;32.70;37.70;;;;;;4974720;28;20475;-61
2022/08/08 15:24:46;;;;;;;1.43;1.33;;;32.80;37.30;;;;;;4974971;28;20459;-61
2022/08/08 15:27:12;;;;;;;1.40;1.30;;;32.80;37.20;;;;;;4974599;28;20505;-61
2022/08/08 15:29:39;;;;;;;1.40;1.30;;;32.70;36.00;;;;;;4974456;28;20455;-61
2022/08/08 15:32:07;;;;;;;1.53;1.43;;;32.60;36.00;;;;;;4974772;28;20493;-61
2022/08/08 15:34:35;;;;;;;1.53;1.43;;;32.60;36.50;;;;;;4974900;28;20454;-61
2022/08/08 15:37:04;;;;;;;2.50;1.43;;;32.70;37.00;;;;;;4975535;28;20454;-61
2022/08/08 15:39:31;;;;;;;1.77;0.97;;;32.70;37.20;;;;;;4974269;28;20968;-61
2022/08/08 15:41:59;;;;;;;1.40;1.30;;;32.70;36.90;;;;;;4974215;28;20481;-61
2022/08/08 15:44:26;;;;;;;1.33;1.30;;;32.60;36.70;;;;;;4974240;28;20446;-61
2022/08/08 15:46:53;;;;;;;2.07;1.20;;;32.60;36.60;;;;;;4974129;28;20847;-61
2022/08/08 15:49:20;;;;;;;3.30;1.07;;;32.40;36.10;;;;;;4974186;28;20829;-62
2022/08/08 15:51:49;;;;;;;1.87;1.27;;;32.40;35.90;;;;;;4975257;28;20474;-62
2022/08/08 15:54:15;;;;;;;1.10;1.10;;;32.40;37.40;;;;;;4978072;28;20466;-61
2022/08/08 15:56:42;;;;;;;1.00;1.00;;;32.40;37.00;;;;;;4977514;28;20942;-61
2022/08/08 15:59:09;;;;;;;2.70;1.40;;;32.40;37.30;;;;;;4977990;28;20454;-61
2022/08/08 16:01:36;;;;;;;1.30;1.30;;;32.30;37.00;;;;;;4977308;28;20486;-61
2022/08/08 16:04:02;;;;;;;2.33;1.10;;;32.30;36.80;;;;;;4977870;28;20461;-62
2022/08/08 16:06:29;;;;;;;1.07;0.90;;;32.10;36.70;;;;;;4977746;28;20482;-62
2022/08/08 16:08:57;;;;;;;1.00;1.00;;;32.20;37.10;;;;;;4977671;28;20461;-62
2022/08/08 16:11:24;;;;;;;1.00;1.00;;;32.20;36.80;;;;;;4977738;28;20482;-62
2022/08/08 16:13:51;;;;;;;1.37;1.30;;;32.20;36.50;;;;;;4977688;28;20455;-62
2022/08/08 16:16:18;;;;;;;1.00;1.00;;;32.10;35.90;;;;;;4977507;28;20938;-62
2022/08/08 16:18:45;;;;;;;1.27;1.17;;;32.10;36.50;;;;;;4977619;28;20458;-61
2022/08/08 16:21:12;;;;;;;1.63;1.30;;;32.10;37.20;;;;;;4979916;28;20818;-62
2022/08/08 16:23:38;;;;;;;1.20;1.10;;;31.90;36.50;;;;;;4984564;28;20454;-62
2022/08/08 16:26:06;;;;;;;2.60;1.33;;;31.80;36.30;;;;;;4983568;28;20895;-60
2022/08/08 16:28:33;;;;;;;1.43;1.20;;;31.70;36.80;;;;;;4984375;28;20454;-60
2022/08/08 16:31:00;;;;;;;1.07;1.07;;;31.60;37.10;;;;;;4979598;28;20493;-59
2022/08/08 16:33:27;;;;;;;1.07;1.00;;;31.50;36.90;;;;;;4977596;28;20458;-59
2022/08/08 16:35:53;;;;;;;1.00;1.00;;;31.40;36.80;;;;;;4977498;28;20461;-59
2022/08/08 16:38:20;;;;;;;1.40;1.30;;;31.30;37.70;;;;;;4977351;28;20450;-59
2022/08/08 16:40:47;;;;;;;4.87;2.07;;;31.20;37.50;;;;;;4977269;28;20482;-59
2022/08/08 16:43:15;;;;;;;5.00;1.23;;;31.10;37.20;;;;;;4977263;28;20466;-60
2022/08/08 16:45:41;;;;;;;2.20;0.93;;;31.00;37.50;;;;;;4976878;28;20968;-59
2022/08/08 16:48:08;;;;;;;1.90;1.30;;;31.00;37.00;;;;;;4976999;28;20454;-59
2022/08/08 16:50:35;;;;;;;1.47;1.20;;;30.90;36.90;;;;;;4977256;28;20458;-59
2022/08/08 16:53:02;;;;;;;2.10;1.07;;;30.80;37.50;;;;;;4976729;28;20459;-59
2022/08/08 16:55:29;;;;;;;1.23;1.03;;;30.70;37.80;;;;;;4977003;28;21005;-61
2022/08/08 16:57:55;;;;;;;1.40;1.30;;;30.60;38.00;;;;;;4977278;28;20450;-60
2022/08/08 17:00:23;;;;;;;2.43;1.43;;;30.60;38.40;;;;;;4977001;28;20439;-60